Time;durP1;ratioP1;P1;durP2;ratioP2;P2;SDS_P1;SDS_P2;PMS_P1;PMS_P2;Temp;Humidity;BMP_temperature;BMP_pressure;BME280_temperature;BME280_humidity;BME280_pressure;Samples;Min_cycle;Max_cycle;Signal;HPM_P1;HPM_P2
2022/10/09 00:01:48;;;;;;;24.35;13.85;;;;;;;13.20;100.00;99433.09;5037665;28;20037;-60
2022/10/09 00:04:32;;;;;;;22.10;12.15;;;;;;;13.22;100.00;99440.88;5037289;28;20128;-59
2022/10/09 00:07:17;;;;;;;23.05;12.68;;;;;;;13.22;100.00;99435.63;5042966;28;20196;-59
2022/10/09 00:10:02;;;;;;;23.63;12.73;;;;;;;13.27;100.00;99439.59;5041367;28;20056;-60
2022/10/09 00:12:46;;;;;;;22.30;12.77;;;;;;;13.28;100.00;99446.56;5036091;28;21291;-60
2022/10/09 00:15:31;;;;;;;25.75;14.55;;;;;;;13.21;100.00;99447.06;5037812;28;20108;-59
2022/10/09 00:18:17;;;;;;;23.45;13.02;;;;;;;13.26;100.00;99453.72;5034425;28;20477;-60
2022/10/09 00:21:02;;;;;;;20.77;12.73;;;;;;;13.29;100.00;99445.63;5041922;28;20038;-59
2022/10/09 00:23:47;;;;;;;21.42;12.80;;;;;;;13.50;100.00;99438.94;5032686;28;20116;-59
2022/10/09 00:26:32;;;;;;;26.17;12.35;;;;;;;13.29;100.00;99434.25;5041878;28;20025;-59
2022/10/09 00:29:17;;;;;;;13.75;8.40;;;;;;;13.53;100.00;99441.41;5040541;28;20117;-60
2022/10/09 00:32:02;;;;;;;16.55;9.00;;;;;;;13.45;100.00;99438.44;5036889;28;20497;-60
2022/10/09 00:34:46;;;;;;;21.10;12.27;;;;;;;13.46;100.00;99455.91;5041056;28;20473;-59
2022/10/09 00:37:31;;;;;;;20.25;12.77;;;;;;;13.11;100.00;99452.97;5034990;28;20093;-60
2022/10/09 00:40:15;;;;;;;21.83;12.68;;;;;;;13.34;100.00;99457.59;5036239;28;20420;-60
2022/10/09 00:43:01;;;;;;;20.95;10.93;;;;;;;13.40;100.00;99462.44;5045847;28;20053;-59
2022/10/09 00:45:55;;;;;;;13.75;9.30;;;;;;;13.56;100.00;99467.53;5041417;28;20068;-60
2022/10/09 00:48:39;;;;;;;18.63;11.00;;;;;;;13.57;100.00;99469.19;5039847;28;20120;-60
2022/10/09 00:51:24;;;;;;;25.23;13.35;;;;;;;13.42;100.00;99465.81;5050995;28;20067;-59
2022/10/09 00:54:12;;;;;;;16.08;9.88;;;;;;;13.47;100.00;99462.84;5034323;28;20119;-59
2022/10/09 00:56:58;;;;;;;19.13;11.77;;;;;;;13.42;100.00;99452.66;5039959;28;20403;-59
2022/10/09 00:59:43;;;;;;;16.58;9.82;;;;;;;13.59;100.00;99450.66;5040633;28;20041;-60
2022/10/09 01:02:27;;;;;;;13.10;7.53;;;;;;;13.27;100.00;99431.72;5038478;28;20041;-59
2022/10/09 01:05:12;;;;;;;13.25;8.05;;;;;;;13.39;100.00;99426.53;5033637;28;20030;-60
2022/10/09 01:08:13;;;;;;;17.27;10.23;;;;;;;13.60;100.00;99434.75;5064666;28;20427;-59
2022/10/09 01:11:06;;;;;;;23.58;12.75;;;;;;;13.40;100.00;99444.00;5042317;28;20131;-59
2022/10/09 01:13:59;;;;;;;21.25;10.52;;;;;;;13.17;100.00;99451.72;5036435;28;20124;-60
2022/10/09 01:17:08;;;;;;;20.50;12.85;;;;;;;12.86;100.00;99465.16;5040033;28;20044;-60
2022/10/09 01:20:25;;;;;;;15.38;8.88;;;;;;;12.85;100.00;99467.88;5023216;28;20128;-59
2022/10/09 01:23:20;;;;;;;19.75;11.27;;;;;;;13.13;100.00;99479.19;5037318;28;20042;-60
2022/10/09 01:26:33;;;;;;;16.25;10.20;;;;;;;12.89;100.00;99493.03;5041386;28;20055;-59
2022/10/09 01:29:20;;;;;;;19.08;10.70;;;;;;;12.72;100.00;99470.50;5047133;28;20392;-59
2022/10/09 01:32:08;;;;;;;16.88;9.38;;;;;;;12.84;100.00;99469.69;5071530;28;20124;-60
2022/10/09 01:34:53;;;;;;;15.07;8.02;;;;;;;12.99;100.00;99452.00;5048384;28;20041;-59
2022/10/09 01:37:41;;;;;;;14.68;7.70;;;;;;;12.90;100.00;99457.91;5047483;28;20120;-59
2022/10/09 01:40:27;;;;;;;14.35;8.20;;;;;;;12.99;100.00;99467.78;5030767;28;20060;-58
2022/10/09 01:43:12;;;;;;;14.05;7.22;;;;;;;12.69;100.00;99472.41;5037055;28;20045;-59
2022/10/09 01:46:19;;;;;;;11.55;7.43;;;;;;;12.84;100.00;99472.31;5044702;28;20044;-58
2022/10/09 01:49:10;;;;;;;12.32;7.43;;;;;;;12.77;100.00;99476.28;5040011;28;20109;-59
2022/10/09 01:52:13;;;;;;;15.60;8.82;;;;;;;12.67;100.00;99478.69;5041638;28;20036;-59
2022/10/09 01:55:07;;;;;;;14.23;8.07;;;;;;;12.50;100.00;99477.19;5037821;28;20041;-61
2022/10/09 01:58:18;;;;;;;13.75;7.80;;;;;;;12.50;100.00;99493.78;5069115;28;20041;-59
2022/10/09 02:01:14;;;;;;;12.40;7.68;;;;;;;12.25;100.00;99502.41;5039418;28;20116;-59
2022/10/09 02:04:02;;;;;;;11.23;7.32;;;;;;;12.19;100.00;99503.66;5041890;28;20116;-59
2022/10/09 02:06:48;;;;;;;9.80;5.80;;;;;;;12.33;100.00;99502.75;5036445;28;21359;-60
2022/10/09 02:09:33;;;;;;;12.10;6.68;;;;;;;12.66;100.00;99500.66;5041417;28;20044;-60
2022/10/09 02:12:20;;;;;;;9.93;6.22;;;;;;;12.53;99.30;99500.63;5042565;28;20124;-61
2022/10/09 02:15:06;;;;;;;10.13;5.95;;;;;;;12.61;99.52;99505.38;5040955;28;20485;-60
2022/10/09 02:17:53;;;;;;;10.20;5.70;;;;;;;12.72;99.19;99512.56;5045589;28;20076;-60
2022/10/09 02:20:43;;;;;;;10.73;6.10;;;;;;;12.45;97.14;99522.16;5045281;28;20233;-59
2022/10/09 02:23:28;;;;;;;11.45;6.05;;;;;;;12.17;98.75;99506.38;5039851;28;20128;-58
2022/10/09 02:26:13;;;;;;;7.82;5.30;;;;;;;12.47;98.71;99507.09;5039889;28;20041;-59
2022/10/09 02:28:58;;;;;;;7.25;5.20;;;;;;;12.62;97.96;99513.16;5045541;28;20033;-59
2022/10/09 02:31:43;;;;;;;12.15;5.68;;;;;;;12.68;96.59;99512.75;5034418;28;20029;-59
2022/10/09 02:34:28;;;;;;;9.32;5.63;;;;;;;12.50;96.33;99530.56;5036845;28;20037;-59
2022/10/09 02:37:13;;;;;;;9.40;5.47;;;;;;;12.35;96.82;99534.19;5030368;28;20049;-60
2022/10/09 02:39:58;;;;;;;9.63;5.00;;;;;;;11.92;96.38;99541.16;5036452;28;20056;-60
2022/10/09 02:42:42;;;;;;;7.35;4.55;;;;;;;11.77;97.49;99546.41;5037653;28;20033;-59
2022/10/09 02:45:26;;;;;;;10.75;4.22;;;;;;;11.58;96.03;99534.44;5043317;28;20575;-59
2022/10/09 02:48:11;;;;;;;7.80;4.70;;;;;;;11.62;96.44;99542.94;5036198;28;20040;-66
2022/10/09 02:50:56;;;;;;;7.75;3.90;;;;;;;11.65;94.88;99541.94;5037224;28;20461;-60
2022/10/09 02:53:40;;;;;;;6.20;3.70;;;;;;;11.56;94.56;99543.31;5034608;28;20026;-58
2022/10/09 02:56:27;;;;;;;6.88;3.50;;;;;;;11.55;93.80;99555.63;5037274;28;20484;-59
2022/10/09 02:59:11;;;;;;;5.40;3.08;;;;;;;11.39;93.57;99560.91;5040218;28;20037;-59
2022/10/09 03:01:55;;;;;;;6.28;2.88;;;;;;;11.27;93.26;99566.88;5043920;28;20047;-59
2022/10/09 03:04:40;;;;;;;3.78;2.50;;;;;;;11.24;92.77;99567.06;5048315;28;20041;-59
2022/10/09 03:07:25;;;;;;;6.28;2.90;;;;;;;11.03;91.85;99567.41;5036015;28;20056;-60
2022/10/09 03:10:09;;;;;;;4.65;2.45;;;;;;;10.95;92.58;99579.16;5039434;28;20044;-60
2022/10/09 03:12:54;;;;;;;5.53;2.75;;;;;;;11.15;91.97;99571.91;5041313;28;21358;-61
2022/10/09 03:15:38;;;;;;;7.43;2.70;;;;;;;11.11;90.33;99591.41;5061387;28;20100;-58
2022/10/09 03:18:22;;;;;;;6.28;3.20;;;;;;;10.76;91.98;99586.38;5030638;28;20044;-59
2022/10/09 03:21:09;;;;;;;4.13;2.30;;;;;;;10.58;92.27;99592.56;5034805;28;20041;-59
2022/10/09 03:23:55;;;;;;;7.35;2.40;;;;;;;10.33;93.13;99590.44;5035558;28;20042;-59
2022/10/09 03:26:39;;;;;;;5.25;2.20;;;;;;;10.30;93.52;99593.19;5038589;28;20030;-67
2022/10/09 03:29:24;;;;;;;5.90;2.08;;;;;;;10.23;93.68;99592.69;5042725;28;20071;-61
2022/10/09 03:32:09;;;;;;;3.63;2.05;;;;;;;10.07;93.94;99590.88;5032213;28;20041;-59
2022/10/09 03:34:53;;;;;;;3.80;1.88;;;;;;;10.03;93.87;99592.00;5026745;28;20508;-59
2022/10/09 03:37:39;;;;;;;4.00;1.75;;;;;;;9.99;93.93;99598.31;5053813;28;20063;-59
2022/10/09 03:40:23;;;;;;;4.50;1.95;;;;;;;9.93;94.17;99601.25;5046246;28;20554;-59
2022/10/09 03:43:08;;;;;;;4.35;1.88;;;;;;;10.03;96.13;99605.09;5035459;28;20075;-59
2022/10/09 03:45:53;;;;;;;3.30;1.80;;;;;;;9.79;95.04;99602.81;5040583;28;20068;-60
2022/10/09 03:48:37;;;;;;;5.68;1.63;;;;;;;9.67;95.55;99598.22;5041929;28;20036;-61
2022/10/09 03:51:22;;;;;;;5.45;2.08;;;;;;;9.68;96.56;99602.50;5040102;28;20124;-59
2022/10/09 03:54:07;;;;;;;3.05;1.88;;;;;;;9.65;95.92;99610.53;5037522;28;20041;-59
2022/10/09 03:56:51;;;;;;;4.95;1.80;;;;;;;9.57;96.67;99608.31;5034446;28;20410;-60
2022/10/09 03:59:36;;;;;;;5.22;1.90;;;;;;;9.46;96.75;99603.63;5042930;28;20037;-59
2022/10/09 04:02:21;;;;;;;4.25;1.70;;;;;;;9.45;98.13;99594.94;5040949;28;20412;-59
2022/10/09 04:05:05;;;;;;;5.55;1.75;;;;;;;9.56;97.68;99596.16;5046047;28;20040;-65
2022/10/09 04:07:50;;;;;;;3.97;1.90;;;;;;;9.59;98.49;99599.47;5032141;28;20068;-59
2022/10/09 04:10:35;;;;;;;5.82;1.77;;;;;;;9.46;96.51;99603.63;5042917;28;20358;-60
2022/10/09 04:13:19;;;;;;;4.63;1.58;;;;;;;9.43;97.17;99603.78;5035864;28;20260;-60
2022/10/09 04:16:04;;;;;;;4.30;1.67;;;;;;;9.38;97.86;99597.94;5045718;28;20047;-59
2022/10/09 04:18:49;;;;;;;4.22;1.70;;;;;;;9.38;98.16;99593.56;5041571;28;20476;-60
2022/10/09 04:21:33;;;;;;;5.07;2.03;;;;;;;9.58;98.20;99594.31;5038975;28;20041;-60
2022/10/09 04:24:18;;;;;;;4.88;1.90;;;;;;;9.49;98.75;99601.72;5033326;28;20071;-61
2022/10/09 04:27:02;;;;;;;3.65;1.45;;;;;;;9.69;98.04;99602.47;5038415;28;20087;-60
2022/10/09 04:29:47;;;;;;;3.28;1.70;;;;;;;9.68;97.26;99602.50;5036940;28;20033;-60
2022/10/09 04:32:31;;;;;;;4.63;2.05;;;;;;;9.72;98.77;99607.53;5046018;28;20040;-59
2022/10/09 04:35:16;;;;;;;4.43;1.60;;;;;;;9.93;96.54;99606.47;5038257;28;20444;-58
2022/10/09 04:38:01;;;;;;;2.85;1.77;;;;;;;9.68;96.36;99605.13;5041051;28;20033;-60
2022/10/09 04:41:15;;;;;;;5.90;2.17;;;;;;;9.80;96.50;99606.28;5034587;28;20500;-60
2022/10/09 04:44:00;;;;;;;4.78;1.90;;;;;;;9.53;96.95;99606.78;5036239;28;20503;-60
2022/10/09 04:46:51;;;;;;;4.93;1.73;;;;;;;9.56;98.24;99612.72;5039998;28;20140;-60
2022/10/09 04:49:40;;;;;;;5.80;1.83;;;;;;;9.85;98.46;99620.84;5027036;28;20068;-60
2022/10/09 04:52:25;;;;;;;4.28;1.73;;;;;;;9.77;97.10;99617.75;5040151;28;20056;-60
2022/10/09 04:55:10;;;;;;;4.65;1.60;;;;;;;9.94;98.90;99621.28;5035661;28;20081;-59
2022/10/09 04:57:54;;;;;;;2.53;1.70;;;;;;;9.65;96.29;99615.75;5023460;28;20117;-60
2022/10/09 05:00:44;;;;;;;5.47;1.98;;;;;;;9.94;96.35;99624.72;5039891;28;20055;-64
2022/10/09 05:03:28;;;;;;;4.55;1.92;;;;;;;10.16;95.03;99620.97;5039188;28;20057;-60
2022/10/09 05:06:14;;;;;;;3.67;1.70;;;;;;;9.79;95.12;99620.31;5036666;28;20120;-62
2022/10/09 05:08:58;;;;;;;3.80;1.60;;;;;;;9.97;95.54;99619.31;5023240;28;20053;-60
2022/10/09 05:11:48;;;;;;;3.60;1.67;;;;;;;9.76;95.32;99623.06;5001368;28;20046;-60
2022/10/09 05:14:33;;;;;;;4.50;1.50;;;;;;;9.85;95.65;99636.53;5002827;28;20078;-62
2022/10/09 05:17:17;;;;;;;3.42;2.38;;;;;;;10.01;95.22;99640.09;4987896;28;20429;-59
2022/10/09 05:20:02;;;;;;;6.35;1.92;;;;;;;9.97;95.73;99634.19;4986876;28;20194;-59
2022/10/09 05:22:47;;;;;;;8.13;2.47;;;;;;;10.15;93.99;99642.00;4990648;28;20042;-58
2022/10/09 05:25:42;;;;;;;6.45;2.15;;;;;;;10.54;91.89;99650.47;5009465;28;20117;-57
2022/10/09 05:28:29;;;;;;;8.00;2.85;;;;;;;10.54;95.49;99647.84;5010699;28;20041;-60
2022/10/09 05:31:26;;;;;;;5.03;1.67;;;;;;;10.62;89.26;99653.50;5013208;28;20046;-59
2022/10/09 05:34:20;;;;;;;2.80;1.50;;;;;;;10.82;89.90;99662.06;4972517;28;20189;-59
2022/10/09 05:37:05;;;;;;;4.10;1.70;;;;;;;10.69;90.55;99651.41;5002550;28;23349;-60
2022/10/09 05:39:49;;;;;;;4.85;1.65;;;;;;;11.09;87.75;99661.44;4993283;28;20050;-58
2022/10/09 05:42:34;;;;;;;3.65;1.48;;;;;;;11.20;88.54;99661.66;4992131;28;20397;-62
2022/10/09 05:45:21;;;;;;;6.03;1.70;;;;;;;11.53;88.03;99657.19;4995172;28;20050;-59
2022/10/09 05:48:06;;;;;;;2.85;1.60;;;;;;;11.56;83.28;99662.25;4978379;28;20050;-58
2022/10/09 05:50:50;;;;;;;5.50;1.77;;;;;;;11.55;86.24;99665.81;4994707;28;20495;-58
2022/10/09 05:53:36;;;;;;;3.05;1.50;;;;;;;11.67;82.45;99672.13;4991199;28;20065;-57
2022/10/09 05:56:22;;;;;;;4.55;1.80;;;;;;;11.49;84.10;99675.84;5022038;28;20115;-58
2022/10/09 05:59:10;;;;;;;3.70;1.40;;;;;;;11.42;86.65;99686.69;5031282;28;20179;-59
2022/10/09 06:01:54;;;;;;;3.03;1.50;;;;;;;12.09;82.82;99679.34;5031640;28;20037;-60
2022/10/09 06:04:39;;;;;;;6.07;1.77;;;;;;;12.04;83.64;99687.47;5032705;28;20128;-59
2022/10/09 06:07:24;;;;;;;4.88;1.52;;;;;;;12.49;80.46;99680.44;5036527;28;20036;-63
2022/10/09 06:10:09;;;;;;;4.22;1.65;;;;;;;12.29;79.86;99688.63;5044374;28;20490;-60
2022/10/09 06:12:53;;;;;;;2.83;1.08;;;;;;;12.96;78.85;99701.25;5043346;28;20068;-62
2022/10/09 06:15:38;;;;;;;3.67;1.40;;;;;;;12.93;79.23;99702.25;5041361;28;20135;-58
2022/10/09 06:18:22;;;;;;;3.33;1.48;;;;;;;13.46;74.36;99708.56;5042785;28;20098;-61
2022/10/09 06:21:07;;;;;;;1.98;1.17;;;;;;;13.64;74.52;99710.00;5041799;28;20444;-59
2022/10/09 06:23:54;;;;;;;3.83;1.60;;;;;;;13.73;71.19;99715.63;5037831;28;20095;-59
2022/10/09 06:26:38;;;;;;;3.88;1.33;;;;;;;13.53;73.08;99728.34;5038423;28;20508;-59
2022/10/09 06:29:23;;;;;;;2.42;1.48;;;;;;;13.63;72.74;99715.38;5042735;28;20067;-59
2022/10/09 06:32:08;;;;;;;8.43;1.60;;;;;;;13.92;72.39;99710.81;5037279;28;20071;-61
2022/10/09 06:34:52;;;;;;;3.45;1.17;;;;;;;14.15;70.97;99721.56;5038368;28;20041;-60
2022/10/09 06:37:37;;;;;;;4.63;1.27;;;;;;;13.34;72.27;99715.47;5042549;28;20048;-60
2022/10/09 06:40:21;;;;;;;3.25;1.35;;;;;;;13.55;71.71;99731.69;5038258;28;20037;-58
2022/10/09 06:43:06;;;;;;;3.25;1.65;;;;;;;13.67;71.50;99735.31;5040334;28;20128;-59
2022/10/09 06:45:50;;;;;;;2.92;1.10;;;;;;;13.93;70.42;99743.25;5051506;28;20045;-59
2022/10/09 06:48:36;;;;;;;3.88;1.30;;;;;;;14.54;68.28;99740.00;5051076;28;20064;-59
2022/10/09 06:51:22;;;;;;;7.10;1.60;;;;;;;15.24;65.84;99746.63;5044188;28;22207;-59
2022/10/09 06:54:12;;;;;;;2.25;1.20;;;;;;;15.70;64.24;99746.84;5046361;28;20087;-57
2022/10/09 06:56:57;;;;;;;3.55;1.67;;;;;;;15.41;63.68;99745.38;5038301;28;20052;-59
2022/10/09 06:59:41;;;;;;;4.68;1.70;;;;;;;14.69;65.05;99746.94;5046069;28;20041;-59
2022/10/09 07:02:26;;;;;;;4.78;1.73;;;;;;;14.25;68.61;99747.28;5039287;28;21628;-62
2022/10/09 07:05:11;;;;;;;5.05;1.70;;;;;;;15.61;65.43;99748.34;5049145;28;20080;-59
2022/10/09 07:07:55;;;;;;;6.78;1.90;;;;;;;15.44;63.17;99747.78;5047724;28;20037;-59
2022/10/09 07:10:40;;;;;;;5.72;1.60;;;;;;;15.47;63.77;99760.75;5033196;28;20075;-60
2022/10/09 07:13:24;;;;;;;6.55;1.88;;;;;;;15.62;62.82;99765.88;5032064;28;20041;-61
2022/10/09 07:16:10;;;;;;;6.15;1.77;;;;;;;15.33;63.77;99760.94;5033074;28;20492;-61
2022/10/09 07:18:55;;;;;;;4.13;1.52;;;;;;;15.88;63.79;99761.28;5042517;28;20178;-61
2022/10/09 07:21:42;;;;;;;2.85;1.58;;;;;;;15.46;63.60;99771.44;5034650;28;20143;-61
2022/10/09 07:24:26;;;;;;;2.92;1.40;;;;;;;14.92;64.87;99762.97;5035102;28;20140;-61
2022/10/09 07:27:11;;;;;;;2.53;1.27;;;;;;;15.56;64.10;99771.59;5029381;28;20045;-60
2022/10/09 07:29:55;;;;;;;2.58;1.15;;;;;;;16.19;63.05;99770.53;5033563;28;20382;-60
2022/10/09 07:32:40;;;;;;;3.53;1.10;;;;;;;15.68;64.52;99773.34;5032018;28;20036;-61
2022/10/09 07:35:24;;;;;;;4.88;1.70;;;;;;;16.12;60.97;99764.88;5042689;28;20379;-62
2022/10/09 07:38:12;;;;;;;5.20;1.60;;;;;;;15.94;62.64;99773.22;5066872;28;20041;-61
2022/10/09 07:41:02;;;;;;;2.70;1.35;;;;;;;16.50;60.99;99765.50;5067766;28;20047;-60
2022/10/09 07:43:47;;;;;;;3.80;1.55;;;;;;;16.27;60.91;99775.22;5036581;28;20891;-60
2022/10/09 07:46:31;;;;;;;3.83;1.52;;;;;;;16.62;60.79;99775.16;5041975;28;20377;-60
2022/10/09 07:49:16;;;;;;;2.85;1.25;;;;;;;16.51;59.86;99783.06;5042554;28;20072;-60
2022/10/09 07:52:00;;;;;;;3.70;1.60;;;;;;;16.01;61.74;99787.66;5039614;28;20041;-60
2022/10/09 07:54:45;;;;;;;3.35;1.15;;;;;;;16.21;62.28;99785.31;5033845;28;20048;-63
2022/10/09 07:57:31;;;;;;;3.15;1.30;;;;;;;17.24;58.41;99780.03;5039528;28;20045;-60
2022/10/09 08:00:16;;;;;;;3.88;1.40;;;;;;;17.90;55.82;99780.06;5042892;28;20077;-60
2022/10/09 08:03:00;;;;;;;5.25;1.52;;;;;;;17.77;56.79;99779.38;5038144;28;20044;-60
2022/10/09 08:05:56;;;;;;;3.28;1.58;;;;;;;17.47;56.07;99769.38;5038211;28;20060;-61
2022/10/09 08:08:44;;;;;;;6.07;1.67;;;;;;;16.50;60.26;99784.00;5035641;28;20043;-59
2022/10/09 08:11:29;;;;;;;4.28;1.45;;;;;;;17.46;57.08;99773.00;5032930;28;20120;-61
2022/10/09 08:14:14;;;;;;;5.63;1.60;;;;;;;17.90;56.65;99780.06;5038470;28;20041;-60
2022/10/09 08:16:59;;;;;;;4.50;1.80;;;;;;;18.08;54.93;99779.47;5038045;28;20461;-61
2022/10/09 08:19:44;;;;;;;2.45;1.25;;;;;;;18.64;54.17;99771.28;5034746;28;20037;-61
2022/10/09 08:22:28;;;;;;;4.93;1.40;;;;;;;18.55;53.50;99773.78;5039210;28;20365;-61
2022/10/09 08:25:13;;;;;;;4.43;1.95;;;;;;;18.24;53.71;99784.34;5040906;28;20099;-67
2022/10/09 08:27:59;;;;;;;3.70;1.58;;;;;;;18.00;54.84;99787.22;5036528;28;20116;-61
2022/10/09 08:30:45;;;;;;;4.30;1.42;;;;;;;17.90;54.46;99779.22;5038605;28;20037;-60
2022/10/09 08:33:29;;;;;;;4.25;1.58;;;;;;;17.70;53.75;99773.75;5032886;28;20121;-65
2022/10/09 08:36:14;;;;;;;3.63;1.30;;;;;;;17.31;56.85;99785.69;5039353;28;20049;-61
2022/10/09 08:38:58;;;;;;;5.97;1.50;;;;;;;18.44;53.78;99782.63;5034918;28;20509;-60
2022/10/09 08:41:48;;;;;;;5.38;1.33;;;;;;;19.06;51.09;99786.25;5066363;28;20120;-61
2022/10/09 08:44:36;;;;;;;2.83;1.23;;;;;;;19.35;49.92;99782.84;5035857;28;20033;-61
2022/10/09 08:47:44;;;;;;;2.63;1.13;;;;;;;19.70;48.63;99783.25;5021936;28;20090;-60
2022/10/09 08:50:38;;;;;;;2.60;1.40;;;;;;;19.82;46.41;99787.47;5050215;28;20383;-62
2022/10/09 08:53:29;;;;;;;3.22;1.08;;;;;;;19.02;49.93;99779.50;5035799;28;20029;-62
2022/10/09 08:56:15;;;;;;;4.82;1.10;;;;;;;19.78;48.64;99791.38;5035088;28;20128;-61
2022/10/09 08:59:01;;;;;;;3.97;1.40;;;;;;;19.08;49.07;99784.25;5036575;28;20102;-62
2022/10/09 09:02:00;;;;;;;4.85;1.30;;;;;;;18.41;50.94;99782.06;5040086;28;20029;-62
2022/10/09 09:05:01;;;;;;;2.90;1.10;;;;;;;18.96;49.98;99791.53;5041564;28;20553;-60
2022/10/09 09:07:59;;;;;;;2.88;0.93;;;;;;;19.89;47.58;99793.06;5034821;28;20456;-60
2022/10/09 09:11:00;;;;;;;4.38;1.10;;;;;;;20.42;45.81;99795.34;5039550;28;20044;-68
2022/10/09 09:14:02;;;;;;;2.42;1.00;;;;;;;20.52;46.10;99793.53;5037789;28;20072;-61
2022/10/09 09:17:11;;;;;;;2.83;1.10;;;;;;;21.45;43.80;99790.09;5037918;28;20037;-61
2022/10/09 09:20:11;;;;;;;3.90;1.00;;;;;;;20.80;43.49;99793.56;5036629;28;20037;-62
2022/10/09 09:22:59;;;;;;;5.55;0.90;;;;;;;20.33;45.32;99788.25;5037190;28;20094;-63
2022/10/09 09:25:45;;;;;;;2.97;0.90;;;;;;;21.17;43.86;99791.84;5034797;28;20065;-63
2022/10/09 09:28:32;;;;;;;2.75;1.00;;;;;;;20.67;43.52;99782.41;5033863;28;20048;-64
2022/10/09 09:31:24;;;;;;;2.75;0.88;;;;;;;21.53;43.54;99787.53;5039470;28;20072;-64
2022/10/09 09:34:09;;;;;;;3.03;1.00;;;;;;;20.79;43.79;99767.09;5034564;28;20064;-62
2022/10/09 09:36:57;;;;;;;5.18;1.10;;;;;;;21.62;42.17;99769.78;5033121;28;20465;-62
2022/10/09 09:39:42;;;;;;;3.55;1.15;;;;;;;20.53;43.30;99775.75;5034279;28;20429;-63
2022/10/09 09:42:28;;;;;;;2.70;1.05;;;;;;;21.23;42.38;99778.91;5034569;28;20116;-62
2022/10/09 09:45:19;;;;;;;1.40;0.70;;;;;;;21.56;41.88;99787.22;5035428;28;20041;-68
2022/10/09 09:48:13;;;;;;;2.55;1.00;;;;;;;20.10;44.37;99789.44;5040396;28;20123;-61
2022/10/09 09:50:59;;;;;;;2.03;0.90;;;;;;;20.92;43.40;99777.41;5035945;28;20044;-61
2022/10/09 09:53:48;;;;;;;2.13;1.00;;;;;;;21.37;42.60;99775.72;5039363;28;20037;-62
2022/10/09 09:56:41;;;;;;;2.47;0.90;;;;;;;22.02;40.75;99776.47;5069687;28;20033;-56
2022/10/09 09:59:42;;;;;;;3.50;1.35;;;;;;;21.98;39.62;99775.13;5030762;28;20091;-61
2022/10/09 10:02:27;;;;;;;4.53;1.15;;;;;;;22.07;39.49;99777.81;5040645;28;20481;-60
2022/10/09 10:05:21;;;;;;;2.00;1.00;;;;;;;21.80;39.07;99783.16;5037418;28;20072;-60
2022/10/09 10:08:16;;;;;;;2.78;1.05;;;;;;;20.80;42.14;99779.41;5035872;28;20045;-62
2022/10/09 10:11:04;;;;;;;2.08;0.93;;;;;;;22.17;40.66;99772.41;5035880;28;20087;-69
2022/10/09 10:13:49;;;;;;;3.15;1.00;;;;;;;22.40;40.02;99783.38;5040440;28;20133;-62
2022/10/09 10:16:39;;;;;;;2.88;1.00;;;;;;;22.59;41.95;99770.78;5031394;28;20047;-63
2022/10/09 10:19:29;;;;;;;1.80;0.70;;;;;;;22.17;40.41;99780.41;5054431;28;20041;-60
2022/10/09 10:22:28;;;;;;;1.50;0.90;;;;;;;19.90;44.79;99775.28;5039481;28;20128;-64
2022/10/09 10:25:32;;;;;;;1.97;0.87;;;;;;;20.94;42.89;99769.28;5056459;28;20036;-60
2022/10/09 10:28:22;;;;;;;6.15;2.60;;;;;;;22.80;40.04;99767.75;5050762;28;20044;-63
2022/10/09 10:31:16;;;;;;;2.30;0.90;;;;;;;22.34;39.41;99768.00;5068218;28;20546;-64
2022/10/09 10:34:03;;;;;;;2.88;0.90;;;;;;;22.52;40.49;99767.94;5071251;28;20036;-62
2022/10/09 10:36:55;;;;;;;3.90;0.98;;;;;;;22.35;40.19;99767.84;5075985;28;20048;-62
2022/10/09 10:39:49;;;;;;;1.40;0.80;;;;;;;23.07;40.11;99755.16;5072033;28;20443;-61
2022/10/09 10:42:52;;;;;;;1.90;0.80;;;;;;;22.08;39.36;99759.00;5076929;28;20044;-59
2022/10/09 10:45:48;;;;;;;1.60;0.77;;;;;;;22.62;38.29;99757.19;5075597;28;20431;-64
2022/10/09 10:48:41;;;;;;;2.08;0.60;;;;;;;22.39;39.39;99750.50;5077721;28;20052;-63
2022/10/09 10:51:43;;;;;;;2.90;0.90;;;;;;;22.83;38.52;99755.91;5074068;28;20137;-63
2022/10/09 10:54:41;;;;;;;2.83;0.98;;;;;;;23.07;36.93;99749.81;5074495;28;20036;-66
2022/10/09 10:57:45;;;;;;;1.50;0.45;;;;;;;23.91;36.55;99752.56;5073344;28;20047;-60
2022/10/09 11:00:34;;;;;;;2.25;0.70;;;;;;;23.46;35.78;99747.56;5048641;28;20514;-63
2022/10/09 11:03:33;;;;;;;1.45;0.40;;;;;;;23.09;36.64;99746.97;5033654;28;20160;-62
2022/10/09 11:06:24;;;;;;;1.90;0.50;;;;;;;23.44;36.61;99744.22;5029971;28;20099;-65
2022/10/09 11:09:24;;;;;;;1.83;0.60;;;;;;;23.04;38.11;99738.63;5037987;28;20524;-65
2022/10/09 11:12:18;;;;;;;2.50;0.93;;;;;;;22.39;38.31;99752.38;5031579;28;20057;-63
2022/10/09 11:15:15;;;;;;;5.53;1.30;;;;;;;22.31;37.84;99737.13;5042869;28;20498;-60
2022/10/09 11:18:31;;;;;;;3.30;0.80;;;;;;;22.79;36.99;99727.84;5038761;28;20040;-63
2022/10/09 11:21:52;;;;;;;1.73;0.50;;;;;;;22.59;37.71;99722.72;5035051;28;20167;-63
2022/10/09 11:24:42;;;;;;;1.33;0.45;;;;;;;22.50;37.84;99727.22;5038925;28;20095;-63
2022/10/09 11:27:53;;;;;;;2.15;0.40;;;;;;;22.62;37.09;99728.63;5039795;28;20091;-63
2022/10/09 11:30:49;;;;;;;1.75;0.60;;;;;;;22.84;36.59;99722.88;5036194;28;20603;-63
2022/10/09 11:33:36;;;;;;;1.90;0.43;;;;;;;23.34;37.04;99722.97;5035074;28;20033;-66
2022/10/09 11:36:32;;;;;;;1.15;0.35;;;;;;;23.65;35.61;99718.84;5028904;28;20091;-63
2022/10/09 11:39:27;;;;;;;3.63;0.70;;;;;;;23.47;35.98;99707.28;5039208;28;20064;-64
2022/10/09 11:42:16;;;;;;;1.90;0.40;;;;;;;22.25;37.31;99708.41;5046710;28;20162;-62
2022/10/09 11:45:29;;;;;;;1.88;0.40;;;;;;;23.06;35.60;99693.88;5040184;28;20100;-64
2022/10/09 11:48:57;;;;;;;1.48;0.57;;;;;;;21.46;36.84;99693.19;5041053;28;20044;-63
2022/10/09 11:52:07;;;;;;;0.68;0.30;;;;;;;22.63;36.13;99684.94;5024668;28;20049;-63
2022/10/09 11:54:51;;;;;;;2.53;0.55;;;;;;;22.51;36.28;99686.19;5018827;28;20045;-62
2022/10/09 11:57:36;;;;;;;1.42;0.50;;;;;;;22.50;36.91;99671.16;5023099;28;20030;-63
2022/10/09 12:00:32;;;;;;;1.17;0.40;;;;;;;23.37;35.08;99683.38;5024946;28;20057;-62
2022/10/09 12:03:35;;;;;;;1.48;0.45;;;;;;;22.42;35.86;99671.13;5011294;28;20072;-63
2022/10/09 12:06:21;;;;;;;1.70;0.50;;;;;;;21.47;37.30;99682.38;5007039;28;20057;-63
2022/10/09 12:09:07;;;;;;;3.10;0.50;;;;;;;22.27;35.78;99677.06;5024017;28;20069;-67
2022/10/09 12:11:55;;;;;;;1.88;0.38;;;;;;;22.36;36.04;99665.44;5022023;28;20037;-61
2022/10/09 12:14:40;;;;;;;1.02;0.30;;;;;;;22.94;34.40;99653.28;5022194;28;20175;-61
2022/10/09 12:17:24;;;;;;;1.15;0.25;;;;;;;22.54;34.31;99658.34;5039039;28;20057;-62
2022/10/09 12:20:20;;;;;;;1.00;0.28;;;;;;;21.96;35.62;99657.09;5003810;28;20042;-61
2022/10/09 12:23:08;;;;;;;1.23;0.40;;;;;;;21.87;35.82;99658.84;5024339;28;20392;-62
2022/10/09 12:25:55;;;;;;;1.30;0.30;;;;;;;21.94;35.03;99656.41;5037307;28;20041;-62
2022/10/09 12:29:00;;;;;;;1.73;0.40;;;;;;;22.75;34.67;99656.06;5041233;28;20053;-62
2022/10/09 12:31:45;;;;;;;4.20;0.63;;;;;;;22.42;34.73;99644.44;5035753;28;20032;-66
2022/10/09 12:34:37;;;;;;;1.35;0.30;;;;;;;22.13;35.51;99647.31;5037406;28;20041;-62
2022/10/09 12:37:34;;;;;;;2.72;0.30;;;;;;;22.61;35.32;99636.19;5036825;28;20497;-64
2022/10/09 12:40:27;;;;;;;1.20;0.25;;;;;;;22.26;35.21;99630.88;5038690;28;20567;-64
2022/10/09 12:43:17;;;;;;;0.73;0.30;;;;;;;22.14;35.75;99627.66;5036336;28;20464;-62
2022/10/09 12:46:02;;;;;;;2.85;0.50;;;;;;;22.66;34.75;99638.38;5041302;28;20148;-63
2022/10/09 12:48:46;;;;;;;0.98;0.32;;;;;;;22.78;34.94;99641.59;5035510;28;20072;-62
2022/10/09 12:51:32;;;;;;;2.00;0.30;;;;;;;23.62;33.49;99629.91;5042396;28;20043;-63
2022/10/09 12:54:18;;;;;;;1.95;0.45;;;;;;;23.94;32.99;99623.84;5034332;28;20126;-63
2022/10/09 12:57:03;;;;;;;1.23;0.30;;;;;;;24.11;32.09;99622.75;5036358;28;20392;-63
2022/10/09 12:59:48;;;;;;;1.30;0.30;;;;;;;23.78;31.67;99614.84;5036442;28;20473;-61
2022/10/09 13:02:34;;;;;;;2.05;0.20;;;;;;;23.81;31.83;99621.69;5035820;28;20064;-64
2022/10/09 13:05:19;;;;;;;0.98;0.40;;;;;;;23.99;32.13;99616.13;5033545;28;20128;-63
2022/10/09 13:08:04;;;;;;;1.48;0.20;;;;;;;23.12;32.93;99613.06;5036330;28;20033;-64
2022/10/09 13:10:49;;;;;;;3.28;0.43;;;;;;;23.60;31.92;99610.53;5034091;28;20030;-63
2022/10/09 13:13:33;;;;;;;1.08;0.22;;;;;;;24.59;31.16;99600.47;5033800;28;20129;-61